createdAt,value
2023-04-16T00:02:04.140Z,1.85
2023-04-16T00:04:31.507Z,2.10
2023-04-16T00:06:58.726Z,2.05
2023-04-16T00:09:26.170Z,2.35
2023-04-16T00:11:53.354Z,2.17
2023-04-16T00:14:20.500Z,1.80
2023-04-16T00:16:47.739Z,1.92
2023-04-16T00:19:14.996Z,1.98
2023-04-16T00:21:42.175Z,2.08
2023-04-16T00:24:09.564Z,1.98
2023-04-16T00:26:36.814Z,2.13
2023-04-16T00:29:04.012Z,2.20
2023-04-16T00:31:32.153Z,1.55
2023-04-16T00:33:59.568Z,1.92
2023-04-16T00:36:27.874Z,2.13
2023-04-16T00:38:55.472Z,1.73
2023-04-16T00:41:23.167Z,2.10
2023-04-16T00:43:50.803Z,2.00
2023-04-16T00:46:19.885Z,1.80
2023-04-16T00:48:47.248Z,1.98
2023-04-16T00:51:14.461Z,1.80
2023-04-16T00:53:41.805Z,2.05
2023-04-16T00:56:09.877Z,2.17
2023-04-16T00:58:37.155Z,1.80
2023-04-16T01:01:04.436Z,1.60
2023-04-16T01:03:38.333Z,1.75
2023-04-16T01:06:05.973Z,1.85
2023-04-16T01:08:33.075Z,1.80
2023-04-16T01:11:00.331Z,1.90
2023-04-16T01:13:27.529Z,2.20
2023-04-16T01:15:54.728Z,1.80
2023-04-16T01:18:22.774Z,1.80
2023-04-16T01:20:50.442Z,2.10
2023-04-16T01:23:20.779Z,1.98
2023-04-16T01:25:47.992Z,2.08
2023-04-16T01:28:15.702Z,2.33
2023-04-16T01:30:42.906Z,2.70
2023-04-16T01:33:11.890Z,2.50
2023-04-16T01:35:39.409Z,2.40
2023-04-16T01:38:07.790Z,2.40
2023-04-16T01:40:38.488Z,2.65
2023-04-16T01:43:05.725Z,2.63
2023-04-16T01:45:33.235Z,2.53
2023-04-16T01:48:00.578Z,3.30
2023-04-16T01:50:27.834Z,2.92
2023-04-16T01:52:54.990Z,3.33
2023-04-16T01:55:22.325Z,3.38
2023-04-16T01:57:49.530Z,3.13
2023-04-16T02:00:16.872Z,3.05
2023-04-16T02:02:44.157Z,3.20
2023-04-16T02:05:11.389Z,2.80
2023-04-16T02:07:38.562Z,3.38
2023-04-16T02:10:07.109Z,3.17
2023-04-16T02:12:34.312Z,3.00
2023-04-16T02:15:01.474Z,3.30
2023-04-16T02:17:28.626Z,3.30
2023-04-16T02:19:55.731Z,3.20
2023-04-16T02:22:22.963Z,2.90
2023-04-16T02:24:51.223Z,3.10
2023-04-16T02:27:18.370Z,3.28
2023-04-16T02:29:45.813Z,3.50
2023-04-16T02:32:13.146Z,3.58
2023-04-16T02:34:40.430Z,3.00
2023-04-16T02:37:08.359Z,3.17
2023-04-16T02:39:35.580Z,2.70
2023-04-16T02:42:02.909Z,2.90
2023-04-16T02:44:30.219Z,3.30
2023-04-16T02:46:57.394Z,3.38
2023-04-16T02:49:24.605Z,3.33
2023-04-16T02:51:51.906Z,3.53
2023-04-16T02:54:19.067Z,3.00
2023-04-16T02:56:46.462Z,3.08
2023-04-16T02:59:13.687Z,2.92
2023-04-16T03:01:40.980Z,2.78
2023-04-16T03:04:08.264Z,2.75
2023-04-16T03:06:35.607Z,2.92
2023-04-16T03:09:02.743Z,3.10
2023-04-16T03:11:29.902Z,2.80
2023-04-16T03:13:57.149Z,3.25
2023-04-16T03:16:24.304Z,3.42
2023-04-16T03:18:51.544Z,3.22
2023-04-16T03:21:18.801Z,3.28
2023-04-16T03:23:45.974Z,3.00
2023-04-16T03:26:13.152Z,3.40
2023-04-16T03:28:40.321Z,3.80
2023-04-16T03:31:07.608Z,3.30
2023-04-16T03:33:34.942Z,3.10
2023-04-16T03:36:02.183Z,3.80
2023-04-16T03:38:29.376Z,3.58
2023-04-16T03:40:56.570Z,3.03
2023-04-16T03:43:23.865Z,3.53
2023-04-16T03:45:51.022Z,3.53
2023-04-16T03:48:18.206Z,3.60
2023-04-16T03:50:48.469Z,3.63
2023-04-16T03:53:15.841Z,3.88
2023-04-16T03:55:43.392Z,3.53
2023-04-16T03:58:10.660Z,3.97
2023-04-16T04:00:37.846Z,3.78
2023-04-16T04:03:05.124Z,3.72
2023-04-16T04:05:32.389Z,3.50
2023-04-16T04:07:59.596Z,4.03
2023-04-16T04:10:26.844Z,4.10
2023-04-16T04:12:54.043Z,4.35
2023-04-16T04:15:21.262Z,4.00
2023-04-16T04:17:48.422Z,4.35
2023-04-16T04:20:16.229Z,4.30
2023-04-16T04:22:43.427Z,4.70
2023-04-16T04:25:11.348Z,4.25
2023-04-16T04:27:38.576Z,4.95
2023-04-16T04:30:06.232Z,5.00
2023-04-16T04:32:33.449Z,5.18
2023-04-16T04:35:02.055Z,4.72
2023-04-16T04:37:29.535Z,5.38
2023-04-16T04:39:56.854Z,4.53
2023-04-16T04:42:24.072Z,5.40
2023-04-16T04:44:51.261Z,5.78
2023-04-16T04:47:18.467Z,5.55
2023-04-16T04:49:45.846Z,5.28
2023-04-16T04:52:13.085Z,5.38
2023-04-16T04:54:41.752Z,5.25
2023-04-16T04:57:09.447Z,5.10
2023-04-16T04:59:36.713Z,5.90
2023-04-16T05:02:03.952Z,5.80
2023-04-16T05:04:31.489Z,5.82
2023-04-16T05:06:58.668Z,5.95
2023-04-16T05:09:25.800Z,5.95
2023-04-16T05:11:52.994Z,6.70
2023-04-16T05:14:20.248Z,5.75
2023-04-16T05:16:47.490Z,6.30
2023-04-16T05:19:14.690Z,6.68
2023-04-16T05:21:41.862Z,6.15
2023-04-16T05:24:09.048Z,6.82
2023-04-16T05:26:36.353Z,6.90
2023-04-16T05:29:03.519Z,7.05
2023-04-16T05:31:30.807Z,7.00
2023-04-16T05:33:57.945Z,7.25
2023-04-16T05:36:25.139Z,7.65
2023-04-16T05:38:52.293Z,7.30
2023-04-16T05:41:19.406Z,8.05
2023-04-16T05:43:46.635Z,8.13
2023-04-16T05:46:13.895Z,7.45
2023-04-16T05:48:41.080Z,7.85
2023-04-16T05:51:08.263Z,7.72
2023-04-16T05:53:35.592Z,7.70
2023-04-16T05:56:02.814Z,7.85
2023-04-16T05:58:30.006Z,6.75
2023-04-16T06:00:57.196Z,8.23
2023-04-16T06:03:24.511Z,8.63
2023-04-16T06:05:51.805Z,7.85
2023-04-16T06:08:19.080Z,7.88
2023-04-16T06:10:47.125Z,7.22
2023-04-16T06:13:14.396Z,6.95
2023-04-16T06:15:41.881Z,7.05
2023-04-16T06:18:09.132Z,7.10
2023-04-16T06:20:36.785Z,7.38
2023-04-16T06:23:03.889Z,7.50
2023-04-16T06:25:31.071Z,7.80
2023-04-16T06:27:58.275Z,7.88
2023-04-16T06:30:25.598Z,8.15
2023-04-16T06:32:52.906Z,7.53
2023-04-16T06:35:20.243Z,7.38
2023-04-16T06:37:47.655Z,6.88
2023-04-16T06:40:14.808Z,7.18
2023-04-16T06:42:43.571Z,7.05
2023-04-16T06:45:12.720Z,7.72
2023-04-16T06:47:39.916Z,6.68
2023-04-16T06:50:07.585Z,7.50
2023-04-16T06:52:34.917Z,6.70
2023-04-16T06:55:02.525Z,6.80
2023-04-16T06:57:29.685Z,6.15
2023-04-16T06:59:56.997Z,6.70
2023-04-16T07:02:24.881Z,6.40
2023-04-16T07:04:52.471Z,6.82
2023-04-16T07:07:19.662Z,6.43
2023-04-16T07:09:46.873Z,6.60
2023-04-16T07:12:14.283Z,6.68
2023-04-16T07:14:41.944Z,6.68
2023-04-16T07:17:09.174Z,6.30
2023-04-16T07:19:37.091Z,6.38
2023-04-16T07:22:04.486Z,6.20
2023-04-16T07:24:32.311Z,6.65
2023-04-16T07:26:59.544Z,6.35
2023-04-16T07:29:26.692Z,6.35
2023-04-16T07:31:54.056Z,6.18
2023-04-16T07:34:21.434Z,6.85
2023-04-16T07:36:48.580Z,6.60
2023-04-16T07:39:15.953Z,6.18
2023-04-16T07:41:43.974Z,6.35
2023-04-16T07:44:11.199Z,6.57
2023-04-16T07:46:46.338Z,6.70
2023-04-16T07:49:14.800Z,6.45
2023-04-16T07:51:42.003Z,6.47
2023-04-16T07:54:09.173Z,6.27
2023-04-16T07:56:36.626Z,6.05
2023-04-16T07:59:18.413Z,6.40
2023-04-16T08:01:49.784Z,6.32
2023-04-16T08:04:23.001Z,6.15
2023-04-16T08:06:51.354Z,6.63
2023-04-16T08:09:20.074Z,5.68
2023-04-16T08:11:49.144Z,5.95
2023-04-16T08:14:17.514Z,5.72
2023-04-16T08:16:44.894Z,5.30
2023-04-16T08:19:12.320Z,5.40
2023-04-16T08:21:39.714Z,7.30
2023-04-16T08:24:06.937Z,6.72
2023-04-16T08:26:34.424Z,5.70
2023-04-16T08:29:01.532Z,6.57
2023-04-16T08:31:28.745Z,5.93
2023-04-16T08:33:55.913Z,5.68
2023-04-16T08:36:23.101Z,6.00
2023-04-16T08:38:52.178Z,5.93
2023-04-16T08:41:19.456Z,5.45
2023-04-16T08:43:49.469Z,6.00
2023-04-16T08:46:18.009Z,6.22
2023-04-16T08:48:46.978Z,5.40
2023-04-16T08:51:15.243Z,5.43
2023-04-16T08:54:00.637Z,5.75
2023-04-16T08:56:28.142Z,5.30
2023-04-16T08:58:55.811Z,4.93
2023-04-16T09:01:23.097Z,5.07
2023-04-16T09:03:50.697Z,5.30
2023-04-16T09:06:18.484Z,5.38
2023-04-16T09:08:48.915Z,5.50
2023-04-16T09:11:18.774Z,4.53
2023-04-16T09:13:46.919Z,5.15
2023-04-16T09:16:14.714Z,5.07
2023-04-16T09:18:42.213Z,5.10
2023-04-16T09:21:11.273Z,4.70
2023-04-16T09:23:39.019Z,4.88
2023-04-16T09:26:06.732Z,4.57
2023-04-16T09:28:44.715Z,4.70
2023-04-16T09:31:13.728Z,4.22
2023-04-16T09:33:41.126Z,5.03
2023-04-16T09:36:08.381Z,4.60
2023-04-16T09:38:54.513Z,4.07
2023-04-16T09:41:30.014Z,4.22
2023-04-16T09:43:57.582Z,4.18
2023-04-16T09:46:25.765Z,4.37
2023-04-16T09:48:53.049Z,3.70
2023-04-16T09:51:20.418Z,3.60
2023-04-16T09:53:47.811Z,3.58
2023-04-16T09:56:15.106Z,3.63
2023-04-16T09:58:42.323Z,3.97
2023-04-16T10:01:10.801Z,3.80
2023-04-16T10:03:39.167Z,3.50
2023-04-16T10:06:14.839Z,3.20
2023-04-16T10:08:45.965Z,3.38
2023-04-16T10:11:14.398Z,3.50
2023-04-16T10:13:41.658Z,3.40
2023-04-16T10:16:09.084Z,3.55
2023-04-16T10:18:43.416Z,3.65
2023-04-16T10:21:15.322Z,4.20
2023-04-16T10:23:43.076Z,3.63
2023-04-16T10:26:10.536Z,3.67
2023-04-16T10:28:37.754Z,3.35
2023-04-16T10:31:06.317Z,3.33
2023-04-16T10:33:34.630Z,3.50
2023-04-16T10:36:10.813Z,3.60
2023-04-16T10:38:46.881Z,3.88
2023-04-16T10:41:14.658Z,4.13
2023-04-16T10:43:43.620Z,3.80
2023-04-16T10:46:27.086Z,3.40
2023-04-16T10:48:55.742Z,3.70
2023-04-16T10:51:27.796Z,3.65
2023-04-16T10:53:56.314Z,3.55
2023-04-16T10:56:24.317Z,3.58
2023-04-16T10:58:53.918Z,3.67
2023-04-16T11:01:27.232Z,3.63
2023-04-16T11:03:54.551Z,3.60
2023-04-16T11:06:26.662Z,3.80
2023-04-16T11:09:08.511Z,3.78
2023-04-16T11:11:39.634Z,4.15
2023-04-16T11:14:07.440Z,3.80
2023-04-16T11:16:34.611Z,3.60
2023-04-16T11:19:01.846Z,3.70
2023-04-16T11:21:29.311Z,4.15
2023-04-16T11:23:58.450Z,3.75
2023-04-16T11:26:27.286Z,4.03
2023-04-16T11:28:55.825Z,3.75
2023-04-16T11:31:23.665Z,3.90
2023-04-16T11:33:51.532Z,4.60
2023-04-16T11:36:18.708Z,4.18
2023-04-16T11:38:46.860Z,4.20
2023-04-16T11:41:19.879Z,4.00
2023-04-16T11:43:47.017Z,4.00
2023-04-16T11:46:26.988Z,4.70
2023-04-16T11:48:56.084Z,4.93
2023-04-16T11:51:23.847Z,4.77
2023-04-16T11:53:55.018Z,4.45
2023-04-16T11:56:35.362Z,5.40
2023-04-16T11:59:13.332Z,5.25
2023-04-16T12:01:41.640Z,4.90
2023-04-16T12:04:09.601Z,5.60
2023-04-16T12:06:37.099Z,5.40
2023-04-16T12:09:23.719Z,5.60
2023-04-16T12:11:50.878Z,6.78
2023-04-16T12:14:18.287Z,5.93
2023-04-16T12:16:45.589Z,5.90
2023-04-16T12:19:13.565Z,5.72
2023-04-16T12:21:40.897Z,5.43
2023-04-16T12:24:08.764Z,5.97
2023-04-16T12:26:40.562Z,6.22
2023-04-16T12:29:24.149Z,5.87
2023-04-16T12:31:51.994Z,5.88
2023-04-16T12:34:20.418Z,6.57
2023-04-16T12:36:48.023Z,6.00
2023-04-16T12:39:15.935Z,6.20
2023-04-16T12:41:44.774Z,6.67
2023-04-16T12:44:13.189Z,6.70
2023-04-16T12:46:41.332Z,6.70
2023-04-16T12:49:09.405Z,7.03
2023-04-16T12:51:37.126Z,6.30
2023-04-16T12:54:05.537Z,6.27
2023-04-16T12:56:32.716Z,7.70
2023-04-16T12:58:59.976Z,8.10
2023-04-16T13:01:27.190Z,7.57
2023-04-16T13:03:54.575Z,6.32
2023-04-16T13:06:21.889Z,6.10
2023-04-16T13:08:49.112Z,6.00
2023-04-16T13:11:19.128Z,6.45
2023-04-16T13:13:46.318Z,8.15
2023-04-16T13:16:13.543Z,5.63
2023-04-16T13:18:42.160Z,8.80
2023-04-16T13:21:09.451Z,8.38
2023-04-16T13:23:36.748Z,8.52
2023-04-16T13:26:04.059Z,8.27
2023-04-16T13:28:31.402Z,7.50
2023-04-16T13:30:58.918Z,7.50
2023-04-16T13:33:26.684Z,6.15
2023-04-16T13:35:53.879Z,6.75
2023-04-16T13:38:21.192Z,8.23
2023-04-16T13:40:48.421Z,8.35
2023-04-16T13:43:17.531Z,7.73
2023-04-16T13:45:44.694Z,7.45
2023-04-16T13:48:11.934Z,11.45
2023-04-16T13:50:39.135Z,6.45
2023-04-16T13:53:06.387Z,8.35
2023-04-16T13:55:33.600Z,7.27
2023-04-16T13:58:01.034Z,6.70
2023-04-16T14:00:28.267Z,6.63
2023-04-16T14:02:55.614Z,6.63
2023-04-16T14:05:25.142Z,9.30
2023-04-16T14:07:53.849Z,8.93
2023-04-16T14:10:21.248Z,7.00
2023-04-16T14:12:48.453Z,6.95
2023-04-16T14:15:15.868Z,6.90
2023-04-16T14:17:44.147Z,8.77
2023-04-16T14:20:14.852Z,10.67
2023-04-16T14:22:43.905Z,13.30
2023-04-16T14:25:11.124Z,12.95
2023-04-16T14:27:38.384Z,17.20
2023-04-16T14:30:06.338Z,15.52
2023-04-16T14:32:33.561Z,14.27
2023-04-16T14:35:00.840Z,7.88
2023-04-16T14:37:28.114Z,10.50
2023-04-16T14:39:55.552Z,9.07
2023-04-16T14:42:22.766Z,8.30
2023-04-16T14:44:50.062Z,8.03
2023-04-16T14:47:17.237Z,7.90
2023-04-16T14:49:44.387Z,8.18
2023-04-16T14:52:11.596Z,9.80
2023-04-16T14:54:38.734Z,10.30
2023-04-16T14:57:05.950Z,8.83
2023-04-16T14:59:33.166Z,24.10
2023-04-16T15:02:00.470Z,9.95
2023-04-16T15:04:28.066Z,7.03
2023-04-16T15:06:58.954Z,7.90
2023-04-16T15:09:27.428Z,7.00
2023-04-16T15:11:55.194Z,6.57
2023-04-16T15:14:22.383Z,6.55
2023-04-16T15:16:49.591Z,7.20
2023-04-16T15:19:17.511Z,11.25
2023-04-16T15:21:46.056Z,9.00
2023-04-16T15:24:14.695Z,7.38
2023-04-16T15:26:42.144Z,6.32
2023-04-16T15:29:09.377Z,10.07
2023-04-16T15:31:36.540Z,7.50
2023-04-16T15:34:03.771Z,8.50
2023-04-16T15:36:31.760Z,7.25
2023-04-16T15:38:59.010Z,8.00
2023-04-16T15:41:26.324Z,7.03
2023-04-16T15:43:53.481Z,6.97
2023-04-16T15:46:21.093Z,8.73
2023-04-16T15:48:48.417Z,10.35
2023-04-16T15:51:15.847Z,8.93
2023-04-16T15:53:44.808Z,10.55
2023-04-16T15:56:12.063Z,8.70
2023-04-16T15:58:39.792Z,7.47
2023-04-16T16:01:06.967Z,8.35
2023-04-16T16:03:35.942Z,7.18
2023-04-16T16:06:07.687Z,6.57
2023-04-16T16:08:35.821Z,7.22
2023-04-16T16:11:03.540Z,6.67
2023-04-16T16:13:31.089Z,6.78
2023-04-16T16:15:59.599Z,6.88
2023-04-16T16:18:26.739Z,6.18
2023-04-16T16:20:57.100Z,6.25
2023-04-16T16:23:24.390Z,6.87
2023-04-16T16:25:52.318Z,6.65
2023-04-16T16:28:20.581Z,8.57
2023-04-16T16:30:48.011Z,6.30
2023-04-16T16:33:16.316Z,7.53
2023-04-16T16:35:43.546Z,7.33
2023-04-16T16:38:10.870Z,6.97
2023-04-16T16:40:40.397Z,8.07
2023-04-16T16:43:08.190Z,7.63
2023-04-16T16:45:35.519Z,11.82
2023-04-16T16:48:03.935Z,8.70
2023-04-16T16:50:34.230Z,7.32
2023-04-16T16:53:02.062Z,7.32
2023-04-16T16:55:29.295Z,8.40
2023-04-16T16:57:56.487Z,8.38
2023-04-16T17:00:23.785Z,7.27
2023-04-16T17:02:52.095Z,8.02
2023-04-16T17:05:20.593Z,7.43
2023-04-16T17:07:47.810Z,8.27
2023-04-16T17:10:20.226Z,8.00
2023-04-16T17:12:51.381Z,8.30
2023-04-16T17:15:21.148Z,8.88
2023-04-16T17:17:49.124Z,8.80
2023-04-16T17:20:16.493Z,8.00
2023-04-16T17:22:44.089Z,8.73
2023-04-16T17:25:11.493Z,9.90
2023-04-16T17:27:41.367Z,9.02
2023-04-16T17:30:09.102Z,8.85
2023-04-16T17:32:36.540Z,8.93
2023-04-16T17:35:04.506Z,9.15
2023-04-16T17:37:31.900Z,9.27
2023-04-16T17:39:59.159Z,8.90
2023-04-16T17:42:26.454Z,8.63
2023-04-16T17:44:53.615Z,9.40
2023-04-16T17:47:21.065Z,9.52
2023-04-16T17:49:48.676Z,8.40
2023-04-16T17:52:16.143Z,8.40
2023-04-16T17:54:45.562Z,9.05
2023-04-16T17:57:12.886Z,8.82
2023-04-16T17:59:40.212Z,9.30
2023-04-16T18:02:09.141Z,9.77
2023-04-16T18:04:36.518Z,9.88
2023-04-16T18:07:03.864Z,9.77
2023-04-16T18:09:31.854Z,10.52
2023-04-16T18:11:58.967Z,8.45
2023-04-16T18:14:26.349Z,9.60
2023-04-16T18:16:53.649Z,10.13
2023-04-16T18:19:21.092Z,8.45
2023-04-16T18:21:48.285Z,8.48
2023-04-16T18:24:16.095Z,8.15
2023-04-16T18:26:46.644Z,10.07
2023-04-16T18:29:15.185Z,10.32
2023-04-16T18:31:43.029Z,11.18
2023-04-16T18:34:11.435Z,11.93
2023-04-16T18:36:38.758Z,9.65
